createdAt,value
2023-10-23T00:00:12.122Z,95176.66
2023-10-23T00:02:38.936Z,95182.41
2023-10-23T00:05:06.746Z,95180.03
2023-10-23T00:07:33.469Z,95182.25
2023-10-23T00:10:00.244Z,95207.78
2023-10-23T00:12:26.943Z,95216.25
2023-10-23T00:14:53.699Z,95218.44
2023-10-23T00:17:20.433Z,95212.25
2023-10-23T00:19:47.072Z,95219.91
2023-10-23T00:22:13.721Z,95222.13
2023-10-23T00:24:40.597Z,95224.34
2023-10-23T00:27:07.456Z,95227.38
2023-10-23T00:29:34.177Z,95220.34
2023-10-23T00:32:00.819Z,95215.28
2023-10-23T00:34:27.549Z,95209.84
2023-10-23T00:36:54.194Z,95219.09
2023-10-23T00:39:21.023Z,95218.31
2023-10-23T00:41:47.651Z,95207.47
2023-10-23T00:44:14.375Z,95212.38
2023-10-23T00:46:41.518Z,95215.09
2023-10-23T00:49:09.522Z,95213.81
2023-10-23T00:51:36.743Z,95207.91
2023-10-23T00:54:07.028Z,95216.66
2023-10-23T00:56:34.902Z,95221.28
2023-10-23T00:59:02.114Z,95225.09
2023-10-23T01:01:30.266Z,95223.53
2023-10-23T01:03:57.319Z,95222.41
2023-10-23T01:06:24.063Z,95220.34
2023-10-23T01:08:50.764Z,95225.44
2023-10-23T01:11:17.592Z,95217.28
2023-10-23T01:13:44.312Z,95213.78
2023-10-23T01:16:11.038Z,95211.09
2023-10-23T01:18:37.832Z,95216.97
2023-10-23T01:21:04.555Z,95210.78
2023-10-23T01:23:35.872Z,95212.06
2023-10-23T01:26:02.714Z,95212.84
2023-10-23T01:28:29.556Z,95217.16
2023-10-23T01:30:56.284Z,95217.63
2023-10-23T01:33:23.086Z,95206.00
2023-10-23T01:35:49.916Z,95212.22
2023-10-23T01:38:17.140Z,95217.63
2023-10-23T01:40:43.816Z,95232.63
2023-10-23T01:43:10.526Z,95232.63
2023-10-23T01:45:37.303Z,95230.22
2023-10-23T01:48:04.299Z,95242.97
2023-10-23T01:50:31.062Z,95242.19
2023-10-23T01:52:57.849Z,95244.41
2023-10-23T01:55:24.530Z,95248.25
2023-10-23T01:57:51.261Z,95246.63
2023-10-23T02:00:18.269Z,95245.84
2023-10-23T02:02:45.089Z,95235.00
2023-10-23T02:05:11.739Z,95239.63
2023-10-23T02:07:38.526Z,95228.78
2023-10-23T02:10:05.578Z,95231.81
2023-10-23T02:12:32.220Z,95229.44
2023-10-23T02:15:00.433Z,95236.25
2023-10-23T02:17:27.130Z,95234.97
2023-10-23T02:19:53.775Z,95248.03
2023-10-23T02:22:20.493Z,95245.97
2023-10-23T02:24:47.269Z,95248.19
2023-10-23T02:27:14.140Z,95231.47
2023-10-23T02:29:40.820Z,95234.75
2023-10-23T02:32:08.378Z,95250.50
2023-10-23T02:34:38.683Z,95248.44
2023-10-23T02:37:08.230Z,95242.53
2023-10-23T02:39:34.997Z,95227.38
2023-10-23T02:42:01.790Z,95237.44
2023-10-23T02:44:28.515Z,95248.56
2023-10-23T02:46:55.360Z,95251.28
2023-10-23T02:49:22.103Z,95229.13
2023-10-23T02:51:48.990Z,95224.03
2023-10-23T02:54:15.709Z,95220.84
2023-10-23T02:56:42.454Z,95220.34
2023-10-23T02:59:09.090Z,95223.38
2023-10-23T03:01:35.922Z,95221.78
2023-10-23T03:04:02.794Z,95216.69
2023-10-23T03:06:30.161Z,95218.09
2023-10-23T03:08:58.989Z,95222.72
2023-10-23T03:11:26.874Z,95217.25
2023-10-23T03:13:53.526Z,95219.03
2023-10-23T03:16:20.267Z,95214.75
2023-10-23T03:18:47.161Z,95209.31
2023-10-23T03:21:13.887Z,95211.22
2023-10-23T03:23:40.867Z,95206.94
2023-10-23T03:26:07.557Z,95210.75
2023-10-23T03:28:34.246Z,95207.72
2023-10-23T03:31:02.219Z,95203.09
2023-10-23T03:33:28.874Z,95219.34
2023-10-23T03:35:55.524Z,95220.16
2023-10-23T03:38:22.173Z,95223.97
2023-10-23T03:40:59.318Z,95219.97
2023-10-23T03:43:26.437Z,95229.22
2023-10-23T03:45:53.233Z,95229.22
2023-10-23T03:48:20.064Z,95231.94
2023-10-23T03:50:46.830Z,95233.81
2023-10-23T03:53:13.601Z,95231.41
2023-10-23T03:55:40.451Z,95234.75
2023-10-23T03:58:07.145Z,95235.06
2023-10-23T04:00:34.156Z,95239.19
2023-10-23T04:03:00.866Z,95237.91
2023-10-23T04:05:27.680Z,95234.41
2023-10-23T04:07:54.300Z,95240.91
2023-10-23T04:10:21.110Z,95237.72
2023-10-23T04:12:47.861Z,95251.59
2023-10-23T04:15:14.636Z,95250.28
2023-10-23T04:17:41.271Z,95238.97
2023-10-23T04:20:08.546Z,95235.78
2023-10-23T04:22:35.165Z,95231.00
2023-10-23T04:25:01.842Z,95230.50
2023-10-23T04:27:28.609Z,95228.41
2023-10-23T04:29:55.219Z,95232.22
2023-10-23T04:32:21.873Z,95233.63
2023-10-23T04:34:48.452Z,95235.06
2023-10-23T04:37:15.314Z,95238.88
2023-10-23T04:39:42.233Z,95231.06
2023-10-23T04:42:09.084Z,95238.69
2023-10-23T04:44:35.763Z,95233.28
2023-10-23T04:47:02.595Z,95225.78
2023-10-23T04:49:29.476Z,95223.06
2023-10-23T04:51:56.229Z,95219.06
2023-10-23T04:54:22.861Z,95215.88
2023-10-23T04:56:49.663Z,95216.50
2023-10-23T04:59:16.312Z,95218.72
2023-10-23T05:01:42.991Z,95210.91
2023-10-23T05:04:09.795Z,95208.53
2023-10-23T05:06:36.511Z,95205.31
2023-10-23T05:09:03.418Z,95200.22
2023-10-23T05:11:30.071Z,95194.00
2023-10-23T05:13:56.937Z,95188.91
2023-10-23T05:16:23.699Z,95183.00
2023-10-23T05:18:50.876Z,95180.59
2023-10-23T05:21:17.875Z,95184.41
2023-10-23T05:23:44.561Z,95180.91
2023-10-23T05:26:11.261Z,95185.53
2023-10-23T05:28:41.785Z,95194.75
2023-10-23T05:31:08.957Z,95200.94
2023-10-23T05:33:36.272Z,95204.94
2023-10-23T05:36:03.600Z,95199.84
2023-10-23T05:38:30.329Z,95198.75
2023-10-23T05:40:58.232Z,95198.44
2023-10-23T05:43:28.158Z,95204.56
2023-10-23T05:45:55.922Z,95202.56
2023-10-23T05:48:22.867Z,95200.63
2023-10-23T05:51:04.191Z,95207.97
2023-10-23T05:53:31.993Z,95210.38
2023-10-23T05:56:05.788Z,95217.69
2023-10-23T05:58:33.713Z,95223.59
2023-10-23T06:01:07.463Z,95222.50
2023-10-23T06:03:35.142Z,95222.19
2023-10-23T06:06:02.054Z,95229.16
2023-10-23T06:08:28.712Z,95231.25
2023-10-23T06:10:55.456Z,95237.16
2023-10-23T06:13:22.262Z,95233.34
2023-10-23T06:15:49.720Z,95246.25
2023-10-23T06:18:16.506Z,95245.16
2023-10-23T06:20:43.228Z,95239.44
2023-10-23T06:23:09.976Z,95256.97
2023-10-23T06:25:36.646Z,95253.94
2023-10-23T06:28:03.353Z,95250.94
2023-10-23T06:30:30.693Z,95254.13
2023-10-23T06:32:58.109Z,95260.03
2023-10-23T06:35:24.916Z,95258.59
2023-10-23T06:37:51.748Z,95245.28
2023-10-23T06:40:18.396Z,95237.63
2023-10-23T06:42:45.165Z,95246.75
2023-10-23T06:45:11.898Z,95246.09
2023-10-23T06:47:38.672Z,95235.16
2023-10-23T06:50:06.181Z,95245.06
2023-10-23T06:52:33.776Z,95241.44
2023-10-23T06:55:00.449Z,95236.19
2023-10-23T06:57:27.326Z,95245.47
2023-10-23T06:59:54.082Z,95233.03
2023-10-23T07:02:20.734Z,95236.13
2023-10-23T07:04:47.439Z,95228.00
2023-10-23T07:07:26.065Z,95221.34
2023-10-23T07:09:57.108Z,95217.59
2023-10-23T07:12:23.800Z,95221.72
2023-10-23T07:14:50.649Z,95218.28
2023-10-23T07:17:18.177Z,95225.94
2023-10-23T07:19:45.009Z,95233.59
2023-10-23T07:22:11.834Z,95229.31
2023-10-23T07:24:38.525Z,95230.44
2023-10-23T07:27:05.212Z,95234.28
2023-10-23T07:29:31.953Z,95232.19
2023-10-23T07:31:58.622Z,95242.56
2023-10-23T07:34:25.259Z,95244.78
2023-10-23T07:36:52.026Z,95248.94
2023-10-23T07:39:18.626Z,95242.25
2023-10-23T07:41:45.380Z,95246.06
2023-10-23T07:44:11.978Z,95249.44
2023-10-23T07:46:40.594Z,95258.69
2023-10-23T07:49:07.451Z,95255.50
2023-10-23T07:51:34.055Z,95244.16
2023-10-23T07:54:00.781Z,95236.28
2023-10-23T07:56:27.428Z,95231.66
2023-10-23T07:58:54.679Z,95225.41
2023-10-23T08:01:21.366Z,95230.81
2023-10-23T08:03:48.185Z,95217.22
2023-10-23T08:06:16.727Z,95213.84
2023-10-23T08:08:44.171Z,95217.00
2023-10-23T08:11:12.443Z,95217.91
2023-10-23T08:13:39.700Z,95209.81
2023-10-23T08:16:06.970Z,95211.84
2023-10-23T08:18:40.038Z,95208.91
2023-10-23T08:21:16.576Z,95214.06
2023-10-23T08:23:45.214Z,95208.69
2023-10-23T08:26:11.912Z,95201.72
2023-10-23T08:31:16.734Z,95196.41
2023-10-23T08:33:47.783Z,95182.41
2023-10-23T08:36:14.509Z,95188.56
2023-10-23T08:38:41.169Z,95193.13
2023-10-23T08:41:11.839Z,95198.50
2023-10-23T08:43:40.283Z,95189.75
2023-10-23T08:46:07.116Z,95193.88
2023-10-23T08:48:33.861Z,95192.84
2023-10-23T08:51:00.842Z,95193.75
2023-10-23T08:53:33.444Z,95200.91
2023-10-23T08:56:04.155Z,95183.22
2023-10-23T08:58:32.745Z,95184.47
2023-10-23T09:00:59.479Z,95179.94
2023-10-23T09:04:01.798Z,95176.19
2023-10-23T09:06:17.779Z,95179.84
2023-10-23T09:08:45.100Z,95168.94
2023-10-23T09:11:11.897Z,95168.59
2023-10-23T09:13:40.787Z,95164.38
2023-10-23T09:16:08.698Z,95156.53
2023-10-23T09:18:45.556Z,95155.41
2023-10-23T09:21:12.327Z,95147.34
2023-10-23T09:23:52.648Z,95126.44
2023-10-23T09:26:19.804Z,95125.41
2023-10-23T09:28:47.336Z,95129.38
2023-10-23T09:31:14.818Z,95129.50
2023-10-23T09:33:41.610Z,95128.47
2023-10-23T09:36:08.835Z,95122.44
2023-10-23T09:38:35.826Z,95125.72
2023-10-23T09:41:02.509Z,95124.81
2023-10-23T09:43:29.191Z,95120.00
2023-10-23T09:45:58.557Z,95124.09
2023-10-23T09:48:26.389Z,95120.91
2023-10-23T09:50:56.012Z,95118.78
2023-10-23T09:53:23.005Z,95118.31
2023-10-23T09:55:52.684Z,95127.16
2023-10-23T09:58:21.951Z,95143.03
2023-10-23T10:00:49.335Z,95128.41
2023-10-23T10:03:19.181Z,95126.34
2023-10-23T10:05:59.180Z,95122.06
2023-10-23T10:08:27.836Z,95122.75
2023-10-23T10:10:55.205Z,95122.00
2023-10-23T10:13:22.326Z,95115.19
2023-10-23T10:15:50.831Z,95111.94
2023-10-23T10:18:17.756Z,95118.09
2023-10-23T10:20:48.732Z,95112.44
2023-10-23T10:23:17.266Z,95110.75
2023-10-23T10:25:47.125Z,95107.81
2023-10-23T10:28:14.942Z,95113.09
2023-10-23T10:30:45.649Z,95117.56
2023-10-23T10:34:18.720Z,95112.59
2023-10-23T10:36:45.289Z,95095.97
2023-10-23T10:39:05.139Z,95085.53
2023-10-23T10:41:36.056Z,95082.97
2023-10-23T10:44:09.885Z,95073.31
2023-10-23T10:46:36.791Z,95078.91
2023-10-23T10:49:04.866Z,95070.78
2023-10-23T10:51:31.596Z,95075.97
2023-10-23T10:54:03.536Z,95080.78
2023-10-23T10:56:33.685Z,95073.06
2023-10-23T10:59:04.529Z,95064.19
2023-10-23T11:01:32.453Z,95061.19
2023-10-23T11:04:00.444Z,95043.31
2023-10-23T11:06:27.209Z,95040.94
2023-10-23T11:08:53.936Z,95036.50
2023-10-23T11:11:20.684Z,95041.66
2023-10-23T11:13:47.341Z,95029.88
2023-10-23T11:16:14.198Z,95011.94
2023-10-23T11:18:40.939Z,95002.94
2023-10-23T11:21:07.648Z,95003.34
2023-10-23T11:23:34.266Z,94998.28
2023-10-23T11:26:01.025Z,95005.31
2023-10-23T11:28:27.744Z,95008.78
2023-10-23T11:30:56.609Z,94997.00
2023-10-23T11:33:23.370Z,94997.44
2023-10-23T11:35:50.029Z,94995.47
2023-10-23T11:38:21.119Z,95000.22
2023-10-23T11:40:47.900Z,94995.97
2023-10-23T11:43:15.699Z,94993.66
2023-10-23T11:45:42.910Z,94989.75
2023-10-23T11:48:12.068Z,94989.03
2023-10-23T11:50:40.759Z,94987.44
2023-10-23T11:53:07.549Z,94990.59
2023-10-23T11:55:36.443Z,94985.53
2023-10-23T11:58:03.485Z,94985.97
2023-10-23T12:00:32.912Z,94985.72
2023-10-23T12:02:59.911Z,94979.91
2023-10-23T12:05:26.669Z,94976.06
2023-10-23T12:07:56.936Z,94985.91
2023-10-23T12:10:28.904Z,94975.38
2023-10-23T12:12:56.493Z,94969.09
2023-10-23T12:15:24.583Z,94970.28
2023-10-23T12:17:51.235Z,94983.47
2023-10-23T12:20:17.909Z,94984.03
2023-10-23T12:22:46.175Z,94984.84
2023-10-23T12:25:14.157Z,94978.22
2023-10-23T12:27:41.380Z,94971.91
2023-10-23T12:30:10.148Z,94957.56
2023-10-23T12:33:17.500Z,94946.72
2023-10-23T12:35:24.409Z,94942.09
2023-10-23T12:37:51.248Z,94944.47
2023-10-23T12:40:18.010Z,94953.47
2023-10-23T12:42:44.888Z,94937.75
2023-10-23T12:45:11.715Z,94943.66
2023-10-23T12:47:38.412Z,94955.06
2023-10-23T12:50:05.748Z,94957.75
2023-10-23T12:52:33.311Z,94956.94
2023-10-23T12:55:00.130Z,94954.19
2023-10-23T12:57:26.999Z,94948.31
2023-10-23T12:59:53.700Z,94955.34
2023-10-23T13:02:20.383Z,94945.94
2023-10-23T13:04:49.717Z,94947.50
2023-10-23T13:07:17.098Z,94938.97
2023-10-23T13:09:43.873Z,94938.63
2023-10-23T13:12:10.690Z,94943.41
2023-10-23T13:14:37.364Z,94951.75
2023-10-23T13:17:04.112Z,94939.94
2023-10-23T13:19:30.921Z,94941.53
2023-10-23T13:21:57.707Z,94933.72
2023-10-23T13:24:24.388Z,94924.72
2023-10-23T13:26:50.981Z,94907.09
2023-10-23T13:29:17.668Z,94893.78
2023-10-23T13:31:44.650Z,94911.09
2023-10-23T13:34:11.427Z,94902.09
2023-10-23T13:36:38.166Z,94895.53
2023-10-23T13:39:05.011Z,94891.19
2023-10-23T13:41:31.742Z,94890.03
2023-10-23T13:43:58.342Z,94895.53
2023-10-23T13:46:25.172Z,94893.94
2023-10-23T13:48:52.031Z,94896.69
2023-10-23T13:51:18.806Z,94900.19
2023-10-23T13:53:45.440Z,94895.03
2023-10-23T13:56:12.139Z,94884.88
2023-10-23T13:58:38.848Z,94877.88
2023-10-23T14:01:05.563Z,94871.59
2023-10-23T14:03:32.417Z,94868.06
2023-10-23T14:05:59.200Z,94858.66
2023-10-23T14:09:38.626Z,94855.94
2023-10-23T14:11:57.842Z,94847.66
2023-10-23T14:13:59.831Z,94847.66
2023-10-23T14:16:27.567Z,94826.44
2023-10-23T14:18:54.407Z,94835.00
2023-10-23T14:21:21.201Z,94831.09
2023-10-23T14:23:47.818Z,94825.53
2023-10-23T14:26:14.470Z,94817.28
2023-10-23T14:28:41.287Z,94809.81
2023-10-23T14:31:08.001Z,94810.56
2023-10-23T14:33:34.607Z,94811.31
2023-10-23T14:36:01.315Z,94812.88
2023-10-23T14:38:27.971Z,94812.78
2023-10-23T14:40:55.602Z,94815.91
2023-10-23T14:43:22.326Z,94816.28
2023-10-23T14:45:49.061Z,94807.28
2023-10-23T14:48:15.850Z,94801.78
2023-10-23T14:50:42.523Z,94802.16
2023-10-23T14:53:09.167Z,94797.06
2023-10-23T14:55:35.877Z,94791.19
2023-10-23T14:58:02.699Z,94782.16
2023-10-23T15:00:29.350Z,94782.56
2023-10-23T15:02:56.070Z,94780.97
2023-10-23T15:05:22.734Z,94776.63
2023-10-23T15:07:49.500Z,94757.81
2023-10-23T15:10:16.376Z,94756.25
2023-10-23T15:12:43.271Z,94759.75
2023-10-23T15:15:10.479Z,94768.78
2023-10-23T15:17:37.198Z,94767.22
2023-10-23T15:20:04.044Z,94764.47
2023-10-23T15:22:31.596Z,94768.75
2023-10-23T15:24:59.606Z,94773.03
2023-10-23T15:27:26.392Z,94769.47
2023-10-23T15:29:53.033Z,94763.53
2023-10-23T15:32:19.657Z,94756.44
2023-10-23T15:34:46.749Z,94756.78
2023-10-23T15:37:13.437Z,94758.25
2023-10-23T15:39:40.465Z,94756.59
2023-10-23T15:42:07.778Z,94745.47
2023-10-23T15:44:34.923Z,94745.78
2023-10-23T15:47:01.694Z,94751.13
2023-10-23T15:49:28.367Z,94747.09
2023-10-23T15:51:55.057Z,94748.56
2023-10-23T15:54:21.747Z,94747.22
2023-10-23T15:56:48.565Z,94745.94
2023-10-23T15:59:15.224Z,94746.97
2023-10-23T16:01:41.936Z,94738.59
2023-10-23T16:04:09.135Z,94741.97
2023-10-23T16:06:35.852Z,94740.19
2023-10-23T16:09:13.199Z,94731.44
2023-10-23T16:11:48.999Z,94737.13
2023-10-23T16:14:17.889Z,94729.53
2023-10-23T16:16:44.626Z,94727.84
2023-10-23T16:19:11.390Z,94726.16
2023-10-23T16:21:38.054Z,94726.75
2023-10-23T16:24:05.101Z,94720.34
2023-10-23T16:26:31.741Z,94715.16
2023-10-23T16:28:58.390Z,94719.31
2023-10-23T16:31:27.828Z,94714.53
2023-10-23T16:33:54.589Z,94707.78
2023-10-23T16:36:21.322Z,94706.50
2023-10-23T16:38:47.929Z,94697.81
2023-10-23T16:41:14.578Z,94695.31
2023-10-23T16:43:41.628Z,94696.06
2023-10-23T16:46:08.504Z,94692.03
2023-10-23T16:48:35.227Z,94686.94
2023-10-23T16:51:03.440Z,94685.31
2023-10-23T16:53:30.046Z,94691.03
2023-10-23T16:55:56.687Z,94697.22
2023-10-23T16:58:23.349Z,94705.00
2023-10-23T17:00:51.814Z,94706.88
2023-10-23T17:03:18.610Z,94706.44
2023-10-23T17:05:45.593Z,94702.50
2023-10-23T17:08:12.277Z,94699.66
2023-10-23T17:10:39.016Z,94693.00
2023-10-23T17:13:05.739Z,94700.75
2023-10-23T17:15:32.405Z,94690.19
2023-10-23T17:17:59.991Z,94687.84
2023-10-23T17:20:26.655Z,94686.59
2023-10-23T17:22:53.267Z,94685.00
2023-10-23T17:25:20.000Z,94679.56
2023-10-23T17:27:46.673Z,94682.63
2023-10-23T17:30:13.596Z,94685.72
2023-10-23T17:32:41.174Z,94688.81
2023-10-23T17:35:08.104Z,94681.78
2023-10-23T17:37:34.816Z,94670.41
2023-10-23T17:40:01.643Z,94680.56
2023-10-23T17:42:28.371Z,94680.13
2023-10-23T17:44:55.001Z,94668.41
2023-10-23T17:47:21.783Z,94662.94
2023-10-23T17:49:48.494Z,94662.16
2023-10-23T17:52:15.181Z,94657.06
2023-10-23T17:54:41.907Z,94659.00
2023-10-23T17:57:08.552Z,94656.28
2023-10-23T17:59:35.230Z,94645.72
2023-10-23T18:02:02.226Z,94642.22
2023-10-23T18:04:29.071Z,94637.91
2023-10-23T18:06:55.972Z,94624.59
2023-10-23T18:09:22.583Z,94628.47
2023-10-23T18:11:49.184Z,94631.19
2023-10-23T18:14:15.773Z,94631.56
2023-10-23T18:16:42.403Z,94627.63
2023-10-23T18:19:09.153Z,94618.63
2023-10-23T18:21:35.793Z,94624.09
2023-10-23T18:24:02.413Z,94633.44
2023-10-23T18:26:29.044Z,94620.94
2023-10-23T18:28:55.716Z,94627.53
2023-10-23T18:31:22.404Z,94622.88
2023-10-23T18:33:49.229Z,94610.38
2023-10-23T18:36:16.725Z,94610.75
2023-10-23T18:38:43.475Z,94603.72
2023-10-23T18:41:16.368Z,94602.13
2023-10-23T18:43:44.369Z,94600.19
2023-10-23T18:46:12.049Z,94602.69
2023-10-23T18:48:39.227Z,94603.56
2023-10-23T18:51:06.176Z,94595.38
2023-10-23T18:53:33.158Z,94596.09
2023-10-23T18:56:00.025Z,94599.94
2023-10-23T18:58:26.683Z,94606.13
2023-10-23T19:00:53.669Z,94604.56
2023-10-23T19:03:20.367Z,94597.09
2023-10-23T19:05:47.066Z,94592.78
2023-10-23T19:08:13.809Z,94596.66
2023-10-23T19:10:40.772Z,94596.56
2023-10-23T19:13:07.537Z,94594.19
2023-10-23T19:15:34.297Z,94607.41
2023-10-23T19:18:01.060Z,94604.25
2023-10-23T19:20:27.806Z,94610.84
2023-10-23T19:22:54.420Z,94599.53
2023-10-23T19:25:21.465Z,94590.88
2023-10-23T19:27:48.286Z,94595.88
2023-10-23T19:30:15.225Z,94600.13
2023-10-23T19:32:42.260Z,94584.91
2023-10-23T19:35:09.967Z,94589.13
2023-10-23T19:37:36.953Z,94584.84
2023-10-23T19:40:04.153Z,94579.75
2023-10-23T19:42:37.837Z,94573.47
2023-10-23T19:45:04.992Z,94584.75
2023-10-23T19:47:32.065Z,94584.66
2023-10-23T19:49:59.169Z,94585.03
2023-10-23T19:52:27.254Z,94583.47
2023-10-23T19:54:55.233Z,94586.38
2023-10-23T19:57:33.344Z,94579.50
2023-10-23T20:00:00.039Z,94572.47
2023-10-23T20:02:26.766Z,94574.06
2023-10-23T20:04:53.690Z,94563.50
2023-10-23T20:07:20.511Z,94574.06
2023-10-23T20:09:47.899Z,94569.31
2023-10-23T20:12:14.785Z,94567.72
2023-10-23T20:14:41.550Z,94567.72
2023-10-23T20:17:08.305Z,94571.59
2023-10-23T20:19:35.010Z,94571.59
2023-10-23T20:22:01.802Z,94578.97
2023-10-23T20:24:28.816Z,94573.88
2023-10-23T20:26:55.601Z,94579.34
2023-10-23T20:29:22.739Z,94582.06
2023-10-23T20:31:49.377Z,94578.91
2023-10-23T20:34:16.103Z,94582.88
2023-10-23T20:36:42.864Z,94597.63
2023-10-23T20:39:10.173Z,94598.06
2023-10-23T20:41:36.780Z,94597.28
2023-10-23T20:44:03.480Z,94595.34
2023-10-23T20:46:30.202Z,94590.25
2023-10-23T20:48:56.928Z,94588.31
2023-10-23T20:51:23.536Z,94580.13
2023-10-23T20:53:50.491Z,94580.91
2023-10-23T20:56:17.190Z,94584.00
2023-10-23T20:58:43.838Z,94593.31
2023-10-23T21:01:10.750Z,94594.13
2023-10-23T21:03:37.581Z,94573.44
2023-10-23T21:06:05.475Z,94575.41
2023-10-23T21:08:39.810Z,94576.88
2023-10-23T21:11:07.281Z,94569.06
2023-10-23T21:13:35.037Z,94562.84
2023-10-23T21:16:02.013Z,94560.47
2023-10-23T21:18:28.960Z,94565.91
2023-10-23T21:20:56.292Z,94564.31
2023-10-23T21:23:23.093Z,94561.16
2023-10-23T21:25:49.701Z,94561.94
2023-10-23T21:28:16.580Z,94563.91
2023-10-23T21:30:43.228Z,94559.56
2023-10-23T21:33:09.928Z,94570.84
2023-10-23T21:35:36.549Z,94573.22
2023-10-23T21:38:03.390Z,94573.56
2023-10-23T21:40:30.005Z,94575.50
2023-10-23T21:42:56.697Z,94579.00
2023-10-23T21:45:24.322Z,94588.78
2023-10-23T21:47:51.420Z,94590.13
2023-10-23T21:50:18.249Z,94581.31
2023-10-23T21:52:45.128Z,94575.50
2023-10-23T21:55:18.334Z,94581.31
2023-10-23T21:57:45.601Z,94585.97
2023-10-23T22:00:13.021Z,94586.75
2023-10-23T22:02:40.415Z,94589.06
2023-10-23T22:05:07.620Z,94575.44
2023-10-23T22:07:34.467Z,94568.38
2023-10-23T22:10:01.366Z,94568.03
2023-10-23T22:12:28.203Z,94556.34
2023-10-23T22:14:54.777Z,94556.00
2023-10-23T22:17:21.552Z,94556.78
2023-10-23T22:19:48.268Z,94547.47
2023-10-23T22:22:14.902Z,94549.03
2023-10-23T22:24:41.737Z,94554.13
2023-10-23T22:27:08.521Z,94552.22
2023-10-23T22:29:35.425Z,94555.72
2023-10-23T22:32:02.069Z,94554.94
2023-10-23T22:34:28.835Z,94551.03
2023-10-23T22:37:58.554Z,94554.22
2023-10-23T22:39:42.159Z,94563.53
2023-10-23T22:42:08.938Z,94566.28
2023-10-23T22:44:35.672Z,94574.44
2023-10-23T22:47:02.366Z,94576.75
2023-10-23T22:49:29.427Z,94591.16
2023-10-23T22:51:56.520Z,94584.47
2023-10-23T22:54:23.694Z,94587.19
2023-10-23T22:56:50.446Z,94595.72
2023-10-23T22:59:17.525Z,94589.06
2023-10-23T23:01:44.477Z,94594.09
2023-10-23T23:04:11.666Z,94596.00
2023-10-23T23:06:40.818Z,94589.69
2023-10-23T23:09:07.539Z,94593.53
2023-10-23T23:11:34.633Z,94590.41
2023-10-23T23:14:01.487Z,94591.88
2023-10-23T23:16:30.391Z,94601.19
2023-10-23T23:18:58.321Z,94595.31
2023-10-23T23:21:26.899Z,94607.34
2023-10-23T23:23:53.527Z,94611.22
2023-10-23T23:26:20.198Z,94622.13
2023-10-23T23:28:46.860Z,94625.97
2023-10-23T23:31:13.758Z,94628.72
2023-10-23T23:33:40.424Z,94628.28
2023-10-23T23:36:07.095Z,94633.72
2023-10-23T23:38:33.886Z,94653.94
2023-10-23T23:41:00.557Z,94657.81
2023-10-23T23:43:27.379Z,94650.00
2023-10-23T23:45:54.125Z,94650.78
2023-10-23T23:48:20.793Z,94655.44
2023-10-23T23:50:47.548Z,94651.81
2023-10-23T23:53:14.233Z,94654.47
2023-10-23T23:55:40.957Z,94653.56
2023-10-23T23:58:07.629Z,94647.25
